Latest Weather Observations for Cape Flattery

IDQ60801

Issued at 11:02 am EST Saturday 5 September 2015 (issued every 30 minutes, with the page automatically refreshed every 10 minutes)

About weather observations | Map of weather stations | Latest weather observations for QLD | Other Formats
Station Details ID: 031213 Name: CAPE FLATTERY Lat: -14.97 Lon: 145.31 Height: 18.5 m
Data from the previous 72 hours. | See also: Recent months at Cape Flattery
Date/Time
EST
Temp
°C
App
Temp
°C
Dew
Point
Rel
Hum
%
Delta-T
°C
Wind Press
QNH
hPa
Press
MSL
hPa
Rain
since 9 am
mm
Dir
 
Spd
km/h
Gust
km/h
Spd
kts
Gust
kts
05/11:00am 27.3 26.3 19.6 62 5.0 SSE 24 30 13 16 1018.3 1018.2 0.0
05/10:30am 27.1 26.9 19.7 64 4.8 SE 20 28 11 15 1018.7 1018.6 0.0
05/10:00am 26.8 26.1 18.6 60 5.2 SE 20 26 11 14 1018.8 1018.7 0.0
05/09:30am 26.7 26.4 19.1 63 4.9 SE 19 24 10 13 1018.6 1018.5 0.0
05/09:00am 26.4 26.0 18.8 63 4.9 SE 19 24 10 13 1018.5 1018.4 0.0
05/08:30am 25.6 25.0 18.8 66 4.3 SE 20 26 11 14 1018.2 1018.1 0.0
05/08:00am 25.4 25.1 19.1 68 4.0 SE 19 26 10 14 1018.0 1017.9 0.0
05/07:30am 24.0 24.4 19.1 74 3.1 SE 15 19 8 10 1017.6 1017.5 0.0
05/07:00am 23.1 24.2 18.8 77 2.7 SE 11 15 6 8 1017.2 1017.1 0.0
05/06:30am 22.3 22.9 18.7 80 2.3 SE 13 17 7 9 1016.7 1016.6 0.0
05/06:00am 22.3 22.9 18.5 79 2.4 SE 13 15 7 8 1016.5 1016.4 0.0
05/05:30am 22.3 22.9 18.7 80 2.3 SE 13 19 7 10 1016.2 1016.1 0.0
05/05:00am 22.0 22.8 19.0 83 1.9 SE 13 17 7 9 1016.0 1015.9 0.0
05/04:30am 21.1 22.0 18.3 84 1.7 ESE 11 15 6 8 1015.9 1015.8 0.0
05/04:00am 21.0 22.2 18.2 84 1.7 ESE 9 13 5 7 1016.0 1015.9 0.0
05/03:30am 21.3 22.6 18.5 84 1.8 ESE 9 11 5 6 1016.0 1015.9 0.0
05/03:00am 21.7 22.8 18.9 84 1.8 ESE 11 11 6 6 1016.0 1015.9 0.0
05/02:30am 21.7 23.0 18.5 82 2.0 ESE 9 11 5 6 1016.1 1016.0 0.0
05/02:00am 22.4 23.9 18.8 80 2.3 E 9 11 5 6 1016.4 1016.3 0.0
05/01:30am 23.1 24.8 19.3 79 2.4 ESE 9 11 5 6 1016.7 1016.6 0.0
05/01:00am 23.7 25.3 19.2 76 2.9 ESE 9 15 5 8 1017.1 1017.0 0.0
05/12:30am 24.0 25.4 19.5 76 2.9 ESE 11 17 6 9 1017.4 1017.3 0.0
05/12:00am 23.8 25.1 19.3 76 2.9 E 11 13 6 7 1017.8 1017.7 0.0
 
Date/Time
EST
Temp
°C
App
Temp
°C
Dew
Point
Rel
Hum
%
Delta-T
°C
Wind Press
QNH
hPa
Press
MSL
hPa
Rain
since 9 am
mm
Dir
 
Spd
km/h
Gust
km/h
Spd
kts
Gust
kts
04/11:30pm 24.0 25.6 19.1 74 3.1 ESE 9 13 5 7 1018.1 1018.0 0.0
04/11:00pm 23.8 25.3 19.7 78 2.6 ESE 11 13 6 7 1018.1 1018.0 0.0
04/10:30pm 23.6 25.4 19.5 78 2.6 ESE 9 13 5 7 1018.2 1018.1 0.0
04/10:00pm 22.9 24.3 19.5 81 2.2 E 11 15 6 8 1018.1 1018.0 0.0
04/09:30pm 22.6 24.2 19.2 81 2.2 E 9 11 5 6 1018.0 1017.9 0.0
04/09:00pm 22.9 24.2 19.3 80 2.3 ESE 11 13 6 7 1017.9 1017.8 0.0
04/08:30pm 22.8 24.1 19.2 80 2.3 E 11 13 6 7 1017.6 1017.5 0.0
04/08:00pm 23.1 24.4 19.3 79 2.4 ESE 11 15 6 8 1017.4 1017.3 0.0
04/07:30pm 23.1 24.3 19.1 78 2.5 ESE 11 15 6 8 1017.1 1017.0 0.0
04/07:00pm 23.5 24.8 19.2 77 2.7 ESE 11 15 6 8 1016.8 1016.7 0.0
04/06:30pm 24.1 24.6 19.2 74 3.1 ESE 15 20 8 11 1016.7 1016.6 0.0
04/06:00pm 24.6 25.0 19.0 71 3.6 ESE 15 20 8 11 1016.2 1016.1 0.0
04/05:30pm 25.1 25.2 19.2 70 3.8 SE 17 22 9 12 1016.2 1016.1 0.0
04/05:00pm 25.9 25.3 18.8 65 4.5 ESE 20 26 11 14 1016.0 1015.9 0.0
04/04:30pm 26.4 25.6 19.3 65 4.6 SE 22 30 12 16 1015.9 1015.8 0.0
04/04:00pm 26.3 25.3 18.9 63 4.7 ESE 22 30 12 16 1015.8 1015.7 0.0
04/03:30pm 27.0 26.0 18.8 60 5.3 ESE 22 30 12 16 1015.8 1015.7 0.0
04/03:00pm 26.6 26.2 19.0 63 4.9 SE 19 24 10 13 1016.0 1015.9 0.0
04/02:30pm 27.2 27.1 20.0 64 4.7 SE 20 26 11 14 1016.2 1016.1 0.0
04/02:00pm 27.3 27.2 19.6 62 5.0 SE 19 26 10 14 1016.4 1016.3 0.0
04/01:30pm 27.4 27.4 18.9 59 5.5 SE 17 24 9 13 1016.6 1016.5 0.0
04/01:00pm 27.6 27.6 18.9 59 5.6 ESE 17 22 9 12 1016.9 1016.8 0.0
04/12:30pm 27.5 27.5 19.0 59 5.5 SE 17 26 9 14 1017.5 1017.4 0.0
04/12:00pm 27.8 28.2 19.8 61 5.2 SE 17 26 9 14 1017.9 1017.8 0.0
04/11:30am 27.5 27.8 19.6 62 5.1 SE 17 24 9 13 1018.1 1018.0 0.0
04/11:00am 27.3 27.4 19.9 64 4.8 SE 19 24 10 13 1018.6 1018.5 0.0
04/10:30am 27.8 29.1 20.1 63 5.0 SE 13 17 7 9 1018.6 1018.5 0.0
04/10:00am 26.9 28.3 19.5 64 4.8 SE 11 19 6 10 1018.6 1018.5 0.0
04/09:30am 26.5 28.3 20.3 68 4.1 SSE 11 15 6 8 1018.7 1018.6 0.0
04/09:00am 25.9 27.9 20.0 70 3.8 ESE 9 15 5 8 1018.7 1018.6 0.0
04/08:30am 24.9 27.9 20.8 78 2.7 SSE 6 9 3 5 1018.6 1018.5 0.0
04/08:00am 22.2 26.0 21.0 93 0.8 SE 2 7 1 4 1018.4 1018.3 0.0
04/07:30am 20.7 24.6 20.4 98 0.2 CALM 0 0 0 0 1018.0 1017.9 0.0
04/07:00am 19.7 22.0 19.5 99 0.1 ESE 6 7 3 4 1017.6 1017.5 0.0
04/06:30am 18.8 21.4 18.3 97 0.3 S 2 7 1 4 1017.2 1017.1 0.0
04/06:00am 18.4 21.0 17.6 95 0.5 CALM 0 0 0 0 1016.6 1016.5 0.0
04/05:30am 18.6 21.3 17.8 95 0.5 CALM 0 0 0 0 1016.3 1016.2 0.0
04/05:00am 18.8 21.1 17.6 93 0.7 SE 2 6 1 3 1016.2 1016.1 0.0
04/04:30am 18.6 19.9 17.1 91 0.9 ENE 6 7 3 4 1016.0 1015.9 0.0
04/04:00am 20.0 21.8 18.3 90 1.1 ENE 6 7 3 4 1016.0 1015.9 0.0
04/03:30am 19.3 20.2 17.6 90 1.0 ENE 9 9 5 5 1016.1 1016.0 0.0
04/03:00am 20.4 21.8 18.7 90 1.1 ENE 9 9 5 5 1016.1 1016.0 0.0
04/02:30am 20.4 22.0 18.3 88 1.3 ENE 7 9 4 5 1016.2 1016.1 0.0
04/02:00am 20.5 21.8 18.4 88 1.3 ENE 9 11 5 6 1016.5 1016.4 0.0
04/01:30am 20.7 22.1 18.6 88 1.3 ENE 9 11 5 6 1016.7 1016.6 0.0
04/01:00am 20.8 22.2 18.6 87 1.4 NE 9 11 5 6 1017.0 1016.9 0.0
04/12:30am 21.2 23.0 18.8 86 1.5 NE 7 9 4 5 1017.3 1017.2 0.0
04/12:00am 20.9 22.3 18.7 87 1.4 ENE 9 9 5 5 1017.7 1017.6 0.0
 
Date/Time
EST
Temp
°C
App
Temp
°C
Dew
Point
Rel
Hum
%
Delta-T
°C
Wind Press
QNH
hPa
Press
MSL
hPa
Rain
since 9 am
mm
Dir
 
Spd
km/h
Gust
km/h
Spd
kts
Gust
kts
03/11:30pm 21.2 23.0 18.8 86 1.5 ENE 7 9 4 5 1017.7 1017.6 0.0
03/11:00pm 21.5 23.2 18.5 83 1.9 ENE 7 9 4 5 1017.9 1017.8 0.0
03/10:30pm 21.6 23.5 18.6 83 1.9 ENE 6 7 3 4 1018.0 1017.9 0.0
03/10:00pm 21.7 23.7 19.1 85 1.6 NE 7 9 4 5 1018.0 1017.9 0.0
03/09:30pm 21.5 23.3 18.7 84 1.8 ENE 7 9 4 5 1017.9 1017.8 0.0
03/09:00pm 21.8 23.7 18.6 82 2.0 ENE 6 11 3 6 1017.8 1017.7 0.0
03/08:30pm 22.2 25.3 18.6 80 2.3 CALM 0 0 0 0 1017.5 1017.4 0.0
03/08:00pm 22.6 24.1 19.0 80 2.3 NE 9 15 5 8 1017.1 1017.0 0.0
03/07:30pm 21.3 22.8 17.7 80 2.2 E 6 9 3 5 1016.8 1016.7 0.0
03/07:00pm 22.1 23.2 18.1 78 2.5 ENE 9 13 5 7 1016.4 1016.3 0.0
03/06:30pm 23.0 24.4 17.9 73 3.2 ENE 7 9 4 5 1016.1 1016.0 0.0
03/06:00pm 24.4 25.8 18.6 70 3.7 E 9 13 5 7 1016.0 1015.9 0.0
03/05:30pm 25.2 25.8 18.6 67 4.2 E 13 19 7 10 1015.7 1015.6 0.0
03/05:00pm 25.8 26.0 18.5 64 4.6 E 15 20 8 11 1015.5 1015.4 0.0
03/04:30pm 26.3 26.2 18.7 63 4.9 E 17 22 9 12 1015.4 1015.3 0.0
03/04:00pm 26.2 25.9 18.3 61 5.0 E 17 22 9 12 1015.5 1015.4 0.0
03/03:30pm 26.9 26.3 18.5 60 5.4 ESE 19 26 10 14 1015.6 1015.5 0.0
03/03:00pm 27.2 27.1 18.8 60 5.4 SE 17 24 9 13 1015.9 1015.8 0.0
03/02:30pm 27.5 27.8 18.8 59 5.6 SE 15 19 8 10 1016.1 1016.0 0.0
03/02:00pm 27.7 27.6 18.7 58 5.8 SSE 17 24 9 13 1016.2 1016.1 0.0
03/01:30pm 27.6 28.1 18.3 57 5.9 SE 13 20 7 11 1016.6 1016.5 0.0
03/01:00pm 28.5 28.9 18.9 56 6.2 ESE 15 22 8 12 1017.1 1017.0 0.0
03/12:30pm 28.1 29.0 19.3 58 5.7 ENE 13 20 7 11 1017.5 1017.4 0.0
03/12:00pm 27.3 28.4 18.9 60 5.4 ENE 11 17 6 9 1018.0 1017.9 0.0
03/11:30am 27.1 28.0 17.6 56 6.0 E 9 17 5 9 1018.5 1018.4 0.0
03/11:00am 27.1 27.4 18.7 60 5.4 NNE 15 19 8 10 1018.9 1018.8 0.0
03/10:30am 27.2 27.7 19.3 62 5.1 NNE 15 20 8 11 1019.1 1019.0 0.0
03/10:00am 26.4 27.6 18.3 61 5.1 E 9 20 5 11 1019.3 1019.2 0.0
03/09:30am 27.0 28.1 19.6 64 4.8 ESE 13 22 7 12 1019.3 1019.2 0.0
03/09:00am 26.0 26.7 18.9 65 4.5 E 13 20 7 11 1019.1 1019.0 0.0
03/08:30am 25.3 25.8 19.2 69 3.9 E 15 19 8 10 1018.8 1018.7 0.0
03/08:00am 25.1 26.7 19.9 73 3.4 E 11 19 6 10 1018.6 1018.5 0.0
03/07:30am 23.1 25.5 19.7 81 2.2 E 6 11 3 6 1018.2 1018.1 0.0
03/07:00am 21.6 23.3 19.3 87 1.5 ENE 9 11 5 6 1017.9 1017.8 0.0
03/06:30am 20.4 21.4 18.7 90 1.1 ENE 11 13 6 7 1017.6 1017.5 0.0
03/06:00am 20.2 21.2 18.7 91 0.9 ENE 11 13 6 7 1017.2 1017.1 0.0
03/05:30am 20.0 20.9 18.5 91 0.9 E 11 11 6 6 1016.9 1016.8 0.0
03/05:00am 20.1 21.5 18.6 91 0.9 ENE 9 9 5 5 1016.6 1016.5 0.0
03/04:30am 20.5 21.8 19.2 92 0.8 ENE 11 13 6 7 1016.5 1016.4 0.0
03/04:00am 20.3 21.5 19.0 92 0.8 E 11 11 6 6 1016.4 1016.3 0.0
03/03:30am 20.2 21.4 19.0 93 0.8 E 11 11 6 6 1016.4 1016.3 0.0
03/03:00am 19.8 21.0 18.3 91 0.9 E 9 11 5 6 1016.5 1016.4 0.0
03/02:30am 20.1 21.6 18.8 92 0.8 ENE 9 11 5 6 1016.5 1016.4 0.0
03/02:00am 19.3 20.5 17.4 89 1.2 E 7 7 4 4 1016.5 1016.4 0.0
03/01:30am 20.1 21.3 18.2 89 1.2 ENE 9 11 5 6 1016.6 1016.5 0.0
03/01:00am 20.8 21.8 18.7 88 1.3 ENE 11 11 6 6 1016.8 1016.7 0.0
03/12:30am 21.1 22.6 19.0 88 1.3 ENE 9 11 5 6 1016.9 1016.8 0.0
03/12:00am 21.5 23.1 19.1 86 1.5 ENE 9 11 5 6 1017.1 1017.0 0.0
 
Date/Time
EST
Temp
°C
App
Temp
°C
Dew
Point
Rel
Hum
%
Delta-T
°C
Wind Press
QNH
hPa
Press
MSL
hPa
Rain
since 9 am
mm
Dir
 
Spd
km/h
Gust
km/h
Spd
kts
Gust
kts
02/11:30pm 21.5 22.7 19.1 86 1.5 ENE 11 15 6 8 1017.3 1017.2 0.0
02/11:00pm 21.6 22.9 19.3 87 1.5 ENE 11 13 6 7 1017.1 1017.0 0.0
02/10:30pm 21.6 23.1 19.0 85 1.6 ENE 9 13 5 7 1017.2 1017.1 0.0
02/10:00pm 22.0 23.6 19.2 84 1.8 ENE 9 13 5 7 1017.0 1016.9 0.0
02/09:30pm 22.4 24.2 19.6 84 1.8 ENE 9 15 5 8 1016.9 1016.8 0.0
02/09:00pm 22.3 24.0 19.3 83 1.9 ENE 9 13 5 7 1016.8 1016.7 0.0
02/08:30pm 23.0 24.4 19.6 81 2.2 ENE 11 17 6 9 1016.7 1016.6 0.0
02/08:00pm 22.5 23.8 19.3 82 2.0 ENE 11 15 6 8 1016.7 1016.6 0.0
02/07:30pm 22.2 23.6 18.6 80 2.3 ENE 9 13 5 7 1016.4 1016.3 0.0
02/07:00pm 22.3 23.5 18.3 78 2.5 ENE 9 13 5 7 1016.2 1016.1 0.0
02/06:30pm 23.2 24.8 18.3 74 3.1 ENE 7 11 4 6 1016.1 1016.0 0.0
02/06:00pm 24.6 26.1 18.8 70 3.7 E 9 15 5 8 1016.0 1015.9 0.0
02/05:30pm 25.4 26.3 19.3 69 3.9 ENE 13 20 7 11 1016.0 1015.9 0.0
02/05:00pm 25.8 26.3 19.2 67 4.2 E 15 22 8 12 1015.9 1015.8 0.0
02/04:30pm 26.2 26.1 18.8 63 4.7 E 17 22 9 12 1015.8 1015.7 0.0
02/04:00pm 26.9 27.5 19.5 64 4.8 E 15 22 8 12 1015.7 1015.6 0.0
02/03:30pm 26.6 26.7 19.2 64 4.8 ESE 17 26 9 14 1015.7 1015.6 0.0
02/03:00pm 27.0 26.5 19.1 62 5.1 SE 20 28 11 15 1015.9 1015.8 0.0
02/02:30pm 27.4 27.2 18.4 58 5.7 SE 17 28 9 15 1016.3 1016.2 0.0
02/02:00pm 27.9 27.7 19.4 60 5.5 ESE 19 28 10 15 1016.7 1016.6 0.0
02/01:30pm 27.5 27.1 19.3 61 5.3 ESE 20 26 11 14 1017.0 1016.9 0.0
02/01:00pm 27.4 26.4 18.9 59 5.5 SE 22 33 12 18 1017.5 1017.4 0.0
02/12:30pm 28.0 27.8 19.8 61 5.3 SE 20 30 11 16 1017.8 1017.7 0.0
02/12:00pm 27.6 27.9 20.4 65 4.7 SE 19 24 10 13 1018.4 1018.3 0.0
02/11:30am 27.9 28.2 20.5 64 4.9 SE 19 26 10 14 1018.8 1018.7 0.0

Other Formats:

Comma delimited format used in spreadsheet applications
http://www.bom.gov.au/fwo/IDQ60801/IDQ60801.94188.axf

JavaScript Object Notation format (JSON) in row-major order
http://www.bom.gov.au/fwo/IDQ60801/IDQ60801.94188.json